createdAt,value
2018-11-01T00:01:19.904Z,6.50
2018-11-01T00:03:48.242Z,4.07
2018-11-01T00:06:16.590Z,4.33
2018-11-01T00:08:44.935Z,6.33
2018-11-01T00:11:13.239Z,4.60
2018-11-01T00:13:41.660Z,4.80
2018-11-01T00:16:10.122Z,2.87
2018-11-01T00:18:38.501Z,4.17
2018-11-01T00:21:08.197Z,3.53
2018-11-01T00:23:37.106Z,3.60
2018-11-01T00:26:05.947Z,4.80
2018-11-01T00:28:34.217Z,3.57
2018-11-01T00:31:02.596Z,3.13
2018-11-01T00:33:30.893Z,4.00
2018-11-01T00:35:59.303Z,4.17
2018-11-01T00:38:27.645Z,3.97
2018-11-01T00:40:55.954Z,5.03
2018-11-01T00:43:24.256Z,4.73
2018-11-01T00:45:52.550Z,3.97
2018-11-01T00:48:20.845Z,3.93
2018-11-01T00:50:49.201Z,3.93
2018-11-01T00:53:17.476Z,3.73
2018-11-01T00:55:45.871Z,4.20
2018-11-01T00:58:14.176Z,5.57
2018-11-01T01:00:42.509Z,5.27
2018-11-01T01:03:10.830Z,4.23
2018-11-01T01:05:39.145Z,4.87
2018-11-01T01:08:07.591Z,5.53
2018-11-01T01:10:36.019Z,7.57
2018-11-01T01:13:04.419Z,28.67
2018-11-01T01:15:32.717Z,21.30
2018-11-01T01:18:00.990Z,25.77
2018-11-01T01:20:29.302Z,17.70
2018-11-01T01:22:57.650Z,14.10
2018-11-01T01:25:25.937Z,10.43
2018-11-01T01:27:54.257Z,7.93
2018-11-01T01:30:22.530Z,6.23
2018-11-01T01:32:51.154Z,8.20
2018-11-01T01:35:19.535Z,8.40
2018-11-01T01:37:47.841Z,5.73
2018-11-01T01:40:16.178Z,5.83
2018-11-01T01:42:51.552Z,4.73
2018-11-01T01:45:20.288Z,4.03
2018-11-01T01:47:48.744Z,3.37
2018-11-01T01:50:17.874Z,5.40
2018-11-01T01:52:46.614Z,5.87
2018-11-01T01:55:14.963Z,4.57
2018-11-01T01:57:43.393Z,5.13
2018-11-01T02:00:16.863Z,3.87
2018-11-01T02:02:46.687Z,2.50
2018-11-01T02:05:15.135Z,3.17
2018-11-01T02:07:43.482Z,3.27
2018-11-01T02:10:13.380Z,5.30
2018-11-01T02:12:41.842Z,6.70
2018-11-01T02:15:12.170Z,3.63
2018-11-01T02:17:40.974Z,2.87
2018-11-01T02:20:11.317Z,2.77
2018-11-01T02:22:39.842Z,2.40
2018-11-01T02:25:08.455Z,4.70
2018-11-01T02:27:42.046Z,3.20
2018-11-01T02:30:12.720Z,3.73
2018-11-01T02:32:42.078Z,4.20
2018-11-01T02:35:12.400Z,5.67
2018-11-01T02:37:40.767Z,3.20
2018-11-01T02:40:09.769Z,2.50
2018-11-01T02:42:38.262Z,2.87
2018-11-01T02:45:07.469Z,3.20
2018-11-01T02:47:36.306Z,4.97
2018-11-01T02:50:04.813Z,5.30
2018-11-01T02:52:33.342Z,2.60
2018-11-01T02:55:01.798Z,4.93
2018-11-01T02:57:30.885Z,3.33
2018-11-01T02:59:59.203Z,2.47
2018-11-01T03:02:27.770Z,2.67
2018-11-01T03:04:56.095Z,3.73
2018-11-01T03:07:24.501Z,3.40
2018-11-01T03:09:52.833Z,2.57
2018-11-01T03:12:21.138Z,2.77
2018-11-01T03:14:49.480Z,3.17
2018-11-01T03:17:17.831Z,3.50
2018-11-01T03:19:46.109Z,3.27
2018-11-01T03:22:14.535Z,3.00
2018-11-01T03:24:42.806Z,2.97
2018-11-01T03:27:11.170Z,3.07
2018-11-01T03:29:39.505Z,3.07
2018-11-01T03:32:07.938Z,4.17
2018-11-01T03:34:36.233Z,6.03
2018-11-01T03:37:04.540Z,2.57
2018-11-01T03:39:32.902Z,2.63
2018-11-01T03:42:01.254Z,2.90
2018-11-01T03:44:29.592Z,3.73
2018-11-01T03:46:57.900Z,4.80
2018-11-01T03:49:26.172Z,3.23
2018-11-01T03:51:55.719Z,3.57
2018-11-01T03:54:24.051Z,3.57
2018-11-01T03:56:52.333Z,4.33
2018-11-01T03:59:20.680Z,4.20
2018-11-01T04:01:48.982Z,3.43
2018-11-01T04:04:17.290Z,3.57
2018-11-01T04:06:45.698Z,4.53
2018-11-01T04:09:14.398Z,2.93
2018-11-01T04:11:42.709Z,4.77
2018-11-01T04:14:11.102Z,4.53
2018-11-01T04:16:39.434Z,3.30
2018-11-01T04:19:07.733Z,4.27
2018-11-01T04:21:36.646Z,12.17
2018-11-01T04:24:05.156Z,5.67
2018-11-01T04:26:34.732Z,4.73
2018-11-01T04:29:03.099Z,6.30
2018-11-01T04:31:31.395Z,3.50
2018-11-01T04:33:59.682Z,3.00
2018-11-01T04:36:28.094Z,3.90
2018-11-01T04:38:56.424Z,4.10
2018-11-01T04:41:24.798Z,4.07
2018-11-01T04:43:53.140Z,3.33
2018-11-01T04:46:21.415Z,3.50
2018-11-01T04:48:49.724Z,4.40
2018-11-01T04:51:18.068Z,6.27
2018-11-01T04:53:46.448Z,5.37
2018-11-01T04:56:14.791Z,5.23
2018-11-01T04:58:43.080Z,4.30
2018-11-01T05:01:11.380Z,5.23
2018-11-01T05:03:39.820Z,5.67
2018-11-01T05:06:08.905Z,6.13
2018-11-01T05:08:37.227Z,6.23
2018-11-01T05:11:05.589Z,3.97
2018-11-01T05:13:33.936Z,4.20
2018-11-01T05:16:02.228Z,4.33
2018-11-01T05:18:30.617Z,4.40
2018-11-01T05:20:59.026Z,4.57
2018-11-01T05:23:27.322Z,4.43
2018-11-01T05:25:55.676Z,5.03
2018-11-01T05:28:23.974Z,4.80
2018-11-01T05:30:52.336Z,8.37
2018-11-01T05:33:21.282Z,5.83
2018-11-01T05:35:50.109Z,6.13
2018-11-01T05:38:18.478Z,5.10
2018-11-01T05:40:46.862Z,5.67
2018-11-01T05:43:20.598Z,6.83
2018-11-01T05:45:49.074Z,4.67
2018-11-01T05:48:17.345Z,7.87
2018-11-01T05:50:45.648Z,7.93
2018-11-01T05:53:14.402Z,4.53
2018-11-01T05:55:42.712Z,6.20
2018-11-01T05:58:11.030Z,6.10
2018-11-01T06:00:39.897Z,5.80
2018-11-01T06:03:08.206Z,5.27
2018-11-01T06:05:37.775Z,6.17
2018-11-01T06:08:10.341Z,5.20
2018-11-01T06:10:38.646Z,9.57
2018-11-01T06:13:06.942Z,7.10
2018-11-01T06:15:35.331Z,6.57
2018-11-01T06:18:03.644Z,4.77
2018-11-01T06:20:34.112Z,6.00
2018-11-01T06:23:02.428Z,5.10
2018-11-01T06:25:30.838Z,6.37
2018-11-01T06:27:59.152Z,5.03
2018-11-01T06:30:27.530Z,6.67
2018-11-01T06:32:55.740Z,8.83
2018-11-01T06:35:28.332Z,6.87
2018-11-01T06:37:57.977Z,4.37
2018-11-01T06:40:26.412Z,8.43
2018-11-01T06:42:54.783Z,4.93
2018-11-01T06:45:23.269Z,5.63
2018-11-01T06:47:51.594Z,6.23
2018-11-01T06:50:19.933Z,7.40
2018-11-01T06:52:48.293Z,7.73
2018-11-01T06:55:16.681Z,7.17
2018-11-01T06:57:44.983Z,6.50
2018-11-01T07:00:14.493Z,12.03
2018-11-01T07:02:43.075Z,6.67
2018-11-01T07:05:11.469Z,6.83
2018-11-01T07:07:40.165Z,8.40
2018-11-01T07:10:10.626Z,5.50
2018-11-01T07:12:39.897Z,6.67
2018-11-01T07:15:09.638Z,4.77
2018-11-01T07:17:38.266Z,8.53
2018-11-01T07:20:07.584Z,7.23
2018-11-01T07:22:36.361Z,5.63
2018-11-01T07:25:04.906Z,5.87
2018-11-01T07:27:33.240Z,5.63
2018-11-01T07:30:01.731Z,4.83
2018-11-01T07:32:30.105Z,6.13
2018-11-01T07:34:58.389Z,5.43
2018-11-01T07:37:26.690Z,6.43
2018-11-01T07:39:55.028Z,12.93
2018-11-01T07:42:23.515Z,9.47
2018-11-01T07:44:51.834Z,10.73
2018-11-01T07:47:20.225Z,12.03
2018-11-01T07:49:48.582Z,9.40
2018-11-01T07:52:16.963Z,9.70
2018-11-01T07:54:45.379Z,9.53
2018-11-01T07:57:13.895Z,8.43
2018-11-01T07:59:42.502Z,6.57
2018-11-01T08:02:11.021Z,8.43
2018-11-01T08:04:39.396Z,6.27
2018-11-01T08:07:07.812Z,8.80
2018-11-01T08:09:36.158Z,7.27
2018-11-01T08:12:05.505Z,8.97
2018-11-01T08:14:33.933Z,9.33
2018-11-01T08:17:03.165Z,8.67
2018-11-01T08:19:32.088Z,8.33
2018-11-01T08:22:00.397Z,9.87
2018-11-01T08:24:28.781Z,10.97
2018-11-01T08:26:57.175Z,12.13
2018-11-01T08:29:25.540Z,9.63
2018-11-01T08:31:53.936Z,11.27
2018-11-01T08:34:22.313Z,7.77
2018-11-01T08:36:50.621Z,11.20
2018-11-01T08:39:18.953Z,11.07
2018-11-01T08:41:47.296Z,12.13
2018-11-01T08:44:16.215Z,11.43
2018-11-01T08:46:44.623Z,9.70
2018-11-01T08:49:13.042Z,8.90
2018-11-01T08:51:41.377Z,8.03
2018-11-01T08:54:09.788Z,9.60
2018-11-01T08:56:38.137Z,10.23
2018-11-01T08:59:06.819Z,10.60
2018-11-01T09:01:35.588Z,10.50
2018-11-01T09:04:04.051Z,9.43
2018-11-01T09:06:32.385Z,11.87
2018-11-01T09:09:00.759Z,11.93
2018-11-01T09:11:29.135Z,11.70
2018-11-01T09:13:57.446Z,11.77
2018-11-01T09:16:25.778Z,9.53
2018-11-01T09:18:54.145Z,11.87
2018-11-01T09:21:22.496Z,14.57
2018-11-01T09:23:50.917Z,15.33
2018-11-01T09:26:19.297Z,10.13
2018-11-01T09:28:47.692Z,9.07
2018-11-01T09:31:16.097Z,13.10
2018-11-01T09:33:44.437Z,9.67
2018-11-01T09:36:12.714Z,10.80
2018-11-01T09:38:41.107Z,15.83
2018-11-01T09:41:09.507Z,12.57
2018-11-01T09:43:37.838Z,13.60
2018-11-01T09:46:06.455Z,14.47
2018-11-01T09:48:34.684Z,15.13
2018-11-01T09:51:03.129Z,10.63
2018-11-01T09:53:31.457Z,11.67
2018-11-01T09:55:59.867Z,12.33
2018-11-01T09:58:28.702Z,13.43
2018-11-01T10:00:57.480Z,9.67
2018-11-01T10:03:25.800Z,12.53
2018-11-01T10:05:54.155Z,10.77
2018-11-01T10:08:22.678Z,12.03
2018-11-01T10:10:50.970Z,9.93
2018-11-01T10:13:19.338Z,15.13
2018-11-01T10:15:47.933Z,11.30
2018-11-01T10:18:16.504Z,14.00
2018-11-01T10:20:44.499Z,9.80
2018-11-01T10:23:12.884Z,11.67
2018-11-01T10:25:41.207Z,10.07
2018-11-01T10:28:09.544Z,13.97
2018-11-01T10:30:37.979Z,12.83
2018-11-01T10:33:06.387Z,12.17
2018-11-01T10:35:34.759Z,12.43
2018-11-01T10:38:03.120Z,13.80
2018-11-01T10:40:31.459Z,12.00
2018-11-01T10:42:59.753Z,14.63
2018-11-01T10:45:28.192Z,11.50
2018-11-01T10:47:56.545Z,9.93
2018-11-01T10:50:24.893Z,11.33
2018-11-01T10:52:53.283Z,12.37
2018-11-01T10:55:21.784Z,12.57
2018-11-01T10:57:50.210Z,16.20
2018-11-01T11:00:24.078Z,12.47
2018-11-01T11:02:52.682Z,13.73
2018-11-01T11:05:21.989Z,11.97
2018-11-01T11:07:50.598Z,12.23
2018-11-01T11:10:19.342Z,12.23
2018-11-01T11:12:47.703Z,12.80
2018-11-01T11:15:16.054Z,13.73
2018-11-01T11:17:44.370Z,14.70
2018-11-01T11:20:13.065Z,15.63
2018-11-01T11:22:41.555Z,15.33
2018-11-01T11:25:11.376Z,19.87
2018-11-01T11:27:40.278Z,13.30
2018-11-01T11:30:09.651Z,13.33
2018-11-01T11:32:38.069Z,14.30
2018-11-01T11:35:06.692Z,15.10
2018-11-01T11:37:35.318Z,13.90
2018-11-01T11:40:03.772Z,16.47
2018-11-01T11:42:32.153Z,17.83
2018-11-01T11:45:00.492Z,17.03
2018-11-01T11:47:28.963Z,15.07
2018-11-01T11:49:57.370Z,18.03
2018-11-01T11:52:25.762Z,24.13
2018-11-01T11:54:54.137Z,20.00
2018-11-01T11:57:22.528Z,15.77
2018-11-01T11:59:50.923Z,14.97
2018-11-01T12:02:19.296Z,16.27
2018-11-01T12:04:47.672Z,15.67
2018-11-01T12:07:16.033Z,19.07
2018-11-01T12:09:44.369Z,11.77
2018-11-01T12:12:12.811Z,13.63
2018-11-01T12:14:41.147Z,18.40
2018-11-01T12:17:09.487Z,21.47
2018-11-01T12:19:37.848Z,19.77
2018-11-01T12:22:06.178Z,16.67
2018-11-01T12:24:34.475Z,15.63
2018-11-01T12:27:02.854Z,18.93
2018-11-01T12:29:31.562Z,19.00
2018-11-01T12:31:59.882Z,14.27
2018-11-01T12:34:28.218Z,18.17
2018-11-01T12:36:56.616Z,14.47
2018-11-01T12:39:24.937Z,15.70
2018-11-01T12:41:53.322Z,12.83
2018-11-01T12:44:21.758Z,13.73
2018-11-01T12:46:50.146Z,12.87
2018-11-01T12:49:18.475Z,15.83
2018-11-01T12:51:46.866Z,11.93
2018-11-01T12:54:15.258Z,15.47
2018-11-01T12:56:43.670Z,14.63
2018-11-01T12:59:12.004Z,12.70
2018-11-01T13:01:40.480Z,11.90
2018-11-01T13:04:08.764Z,17.40
2018-11-01T13:06:37.115Z,13.50
2018-11-01T13:09:08.796Z,14.87
2018-11-01T13:11:37.091Z,14.87
2018-11-01T13:14:05.634Z,15.37
2018-11-01T13:16:34.058Z,13.23
2018-11-01T13:19:02.398Z,15.20
2018-11-01T13:21:30.819Z,10.53
2018-11-01T13:23:59.169Z,13.67
2018-11-01T13:26:27.531Z,11.47
2018-11-01T13:28:56.481Z,11.80
2018-11-01T13:31:24.837Z,11.33
2018-11-01T13:33:53.232Z,12.63
2018-11-01T13:36:21.553Z,13.63
2018-11-01T13:38:49.962Z,18.07
2018-11-01T13:41:18.480Z,14.63
2018-11-01T13:43:46.686Z,12.17
2018-11-01T13:46:15.024Z,12.27
2018-11-01T13:48:43.379Z,10.67
2018-11-01T13:51:11.740Z,11.27
2018-11-01T13:53:40.115Z,13.33
2018-11-01T13:56:08.431Z,11.80
2018-11-01T13:58:37.126Z,11.47
2018-11-01T14:01:05.802Z,11.73
2018-11-01T14:03:34.154Z,11.10
2018-11-01T14:06:02.552Z,15.07
2018-11-01T14:08:30.935Z,13.57
2018-11-01T14:10:59.245Z,11.67
2018-11-01T14:13:30.564Z,14.97
2018-11-01T14:15:58.826Z,13.80
2018-11-01T14:18:27.192Z,12.67
2018-11-01T14:20:55.566Z,9.23
2018-11-01T14:23:24.070Z,13.07
2018-11-01T14:25:52.398Z,12.97
2018-11-01T14:28:20.757Z,11.27
2018-11-01T14:30:49.071Z,12.80
2018-11-01T14:33:17.422Z,15.50
2018-11-01T14:35:45.840Z,21.73
2018-11-01T14:38:14.171Z,19.47
2018-11-01T14:40:42.508Z,18.17
2018-11-01T14:43:10.923Z,17.07
2018-11-01T14:45:39.188Z,19.27
2018-11-01T14:48:07.581Z,23.80
2018-11-01T14:50:35.948Z,31.93
2018-11-01T14:53:05.647Z,21.93
2018-11-01T14:55:33.836Z,14.97
2018-11-01T14:58:03.657Z,14.93
2018-11-01T15:00:30.806Z,15.43
2018-11-01T15:02:59.259Z,20.43
2018-11-01T15:05:27.519Z,17.33
2018-11-01T15:07:55.883Z,17.50
2018-11-01T15:10:24.310Z,12.57
2018-11-01T15:12:52.703Z,24.07
2018-11-01T15:15:21.039Z,23.23
2018-11-01T15:17:49.444Z,19.83
2018-11-01T15:20:17.846Z,34.20
2018-11-01T15:22:46.182Z,43.37
2018-11-01T15:25:14.628Z,27.90
2018-11-01T15:27:43.038Z,24.37
2018-11-01T15:30:13.669Z,21.03
2018-11-01T15:32:42.018Z,23.77
2018-11-01T15:35:10.419Z,31.13
2018-11-01T15:37:38.875Z,25.17
2018-11-01T15:40:08.978Z,25.20
2018-11-01T15:42:37.295Z,23.00
2018-11-01T15:45:06.899Z,21.37
2018-11-01T15:47:35.238Z,31.73
2018-11-01T15:50:03.669Z,19.67
2018-11-01T15:52:32.109Z,17.50
2018-11-01T15:55:00.466Z,16.40
2018-11-01T15:57:28.835Z,15.90
2018-11-01T15:59:57.247Z,16.87
2018-11-01T16:02:25.652Z,28.10
2018-11-01T16:04:54.022Z,51.67
2018-11-01T16:07:22.483Z,30.10
2018-11-01T16:09:51.067Z,20.53
2018-11-01T16:12:19.344Z,31.30
2018-11-01T16:14:47.706Z,17.63
2018-11-01T16:17:16.789Z,28.57
2018-11-01T16:19:46.134Z,35.57
2018-11-01T16:22:14.558Z,24.77
2018-11-01T16:24:43.267Z,19.67
2018-11-01T16:27:11.649Z,18.37
2018-11-01T16:29:40.612Z,20.73
2018-11-01T16:32:09.152Z,22.67
2018-11-01T16:34:37.629Z,20.40
2018-11-01T16:37:06.076Z,17.87
2018-11-01T16:39:34.435Z,17.17
2018-11-01T16:42:02.897Z,14.67
2018-11-01T16:44:31.261Z,22.27
2018-11-01T16:46:59.679Z,24.77
2018-11-01T16:49:28.064Z,16.83
2018-11-01T16:51:56.453Z,22.13
2018-11-01T16:54:24.848Z,25.63
2018-11-01T16:56:53.172Z,20.27
2018-11-01T16:59:21.877Z,18.87
2018-11-01T17:01:50.288Z,21.33
2018-11-01T17:04:18.720Z,25.83
2018-11-01T17:06:47.190Z,23.73
2018-11-01T17:09:15.604Z,29.23
2018-11-01T17:11:44.216Z,25.90
2018-11-01T17:14:12.652Z,28.63
2018-11-01T17:16:41.074Z,26.40
2018-11-01T17:19:09.695Z,31.50
2018-11-01T17:21:38.471Z,30.57
2018-11-01T17:24:07.069Z,27.30
2018-11-01T17:26:35.571Z,31.97
2018-11-01T17:29:04.015Z,28.00
2018-11-01T17:31:32.363Z,21.07
2018-11-01T17:34:00.936Z,22.33
2018-11-01T17:36:29.284Z,23.43
2018-11-01T17:38:57.813Z,27.33
2018-11-01T17:41:26.442Z,25.13
2018-11-01T17:43:54.879Z,24.17
2018-11-01T17:46:23.295Z,23.93
2018-11-01T17:48:51.647Z,26.43
2018-11-01T17:51:20.082Z,28.97
2018-11-01T17:53:48.372Z,21.30
2018-11-01T17:56:16.852Z,28.67
2018-11-01T17:58:45.201Z,20.07
2018-11-01T18:01:13.565Z,23.17
2018-11-01T18:03:42.206Z,22.93
2018-11-01T18:06:10.874Z,21.10
2018-11-01T18:08:40.147Z,22.30
2018-11-01T18:11:08.652Z,24.23
2018-11-01T18:13:37.073Z,19.87
2018-11-01T18:16:05.955Z,24.73
2018-11-01T18:18:34.464Z,21.60
2018-11-01T18:21:03.567Z,23.27
2018-11-01T18:23:32.263Z,20.40
2018-11-01T18:26:00.685Z,19.60
2018-11-01T18:28:30.052Z,19.53
2018-11-01T18:30:58.581Z,20.60
2018-11-01T18:33:26.989Z,16.50
2018-11-01T18:35:55.318Z,19.03
2018-11-01T18:38:23.862Z,21.27
2018-11-01T18:40:52.222Z,21.80
2018-11-01T18:43:20.563Z,22.63
2018-11-01T18:45:48.972Z,21.33
2018-11-01T18:48:17.327Z,22.00
2018-11-01T18:50:45.764Z,22.60
2018-11-01T18:53:15.584Z,20.40
2018-11-01T18:55:43.946Z,28.33
2018-11-01T18:58:12.291Z,23.60
2018-11-01T19:00:40.780Z,23.77
2018-11-01T19:03:09.082Z,27.07
2018-11-01T19:05:37.426Z,28.23
2018-11-01T19:08:05.940Z,23.33
2018-11-01T19:10:34.358Z,30.20
2018-11-01T19:13:02.788Z,24.60
2018-11-01T19:15:31.135Z,31.73
2018-11-01T19:17:59.571Z,21.93
2018-11-01T19:20:28.061Z,25.77
2018-11-01T19:22:56.371Z,19.13
2018-11-01T19:25:24.805Z,18.47
2018-11-01T19:27:53.304Z,33.90
2018-11-01T19:30:21.755Z,34.77
2018-11-01T19:32:50.213Z,27.47
2018-11-01T19:35:18.609Z,19.07
2018-11-01T19:37:47.008Z,23.37
2018-11-01T19:40:16.386Z,26.33
2018-11-01T19:42:45.135Z,26.80
2018-11-01T19:45:13.592Z,21.97
2018-11-01T19:47:42.162Z,22.50
2018-11-01T19:50:12.510Z,22.07
2018-11-01T19:52:41.022Z,22.37
2018-11-01T19:55:09.688Z,21.97
2018-11-01T19:57:38.296Z,25.37
2018-11-01T20:00:09.127Z,28.03
2018-11-01T20:02:37.589Z,22.10
2018-11-01T20:05:07.175Z,23.73
2018-11-01T20:07:35.555Z,23.50
2018-11-01T20:10:04.169Z,24.53
2018-11-01T20:12:32.650Z,31.13
2018-11-01T20:15:01.152Z,33.77
2018-11-01T20:17:29.483Z,25.80
2018-11-01T20:19:58.373Z,25.67
2018-11-01T20:22:26.909Z,21.90
2018-11-01T20:24:55.440Z,20.80
2018-11-01T20:27:23.958Z,23.17
2018-11-01T20:29:52.403Z,18.63
2018-11-01T20:32:20.808Z,16.03
2018-11-01T20:34:49.247Z,15.27
2018-11-01T20:37:17.623Z,15.67
2018-11-01T20:39:46.128Z,14.97
2018-11-01T20:42:14.692Z,11.80
2018-11-01T20:44:43.089Z,14.67
2018-11-01T20:47:11.673Z,14.13
2018-11-01T20:49:40.172Z,14.20
2018-11-01T20:52:08.635Z,10.90
2018-11-01T20:54:37.227Z,13.60
2018-11-01T20:57:05.891Z,12.73
2018-11-01T20:59:34.375Z,10.87
2018-11-01T21:02:02.801Z,15.20
2018-11-01T21:04:31.511Z,16.43
2018-11-01T21:07:00.039Z,13.07
2018-11-01T21:09:28.556Z,13.43
2018-11-01T21:11:57.260Z,13.57
2018-11-01T21:14:25.556Z,13.93
2018-11-01T21:16:54.139Z,13.03
2018-11-01T21:19:22.529Z,12.47
2018-11-01T21:21:50.983Z,11.90
2018-11-01T21:24:19.599Z,12.83
2018-11-01T21:26:48.176Z,11.73
2018-11-01T21:29:16.646Z,14.73
2018-11-01T21:31:45.054Z,12.87
2018-11-01T21:34:13.623Z,14.80
2018-11-01T21:36:42.043Z,12.73
2018-11-01T21:39:10.543Z,13.27
2018-11-01T21:41:38.904Z,12.63
2018-11-01T21:44:07.475Z,14.40
2018-11-01T21:46:36.062Z,16.00
2018-11-01T21:49:04.634Z,15.57
2018-11-01T21:51:33.146Z,17.83
2018-11-01T21:54:01.888Z,16.10
2018-11-01T21:56:30.378Z,16.13
2018-11-01T21:58:58.756Z,16.57
2018-11-01T22:01:27.176Z,18.03
2018-11-01T22:03:55.575Z,16.87
2018-11-01T22:06:23.941Z,16.80
2018-11-01T22:08:52.402Z,16.40
2018-11-01T22:11:20.744Z,16.70
2018-11-01T22:13:49.128Z,19.67
2018-11-01T22:16:17.547Z,18.13
2018-11-01T22:18:45.866Z,18.70
2018-11-01T22:21:14.216Z,19.13
2018-11-01T22:23:42.642Z,17.07
2018-11-01T22:26:11.055Z,18.10
2018-11-01T22:28:39.528Z,17.50
2018-11-01T22:31:07.844Z,24.83
2018-11-01T22:33:36.407Z,20.57
2018-11-01T22:36:04.868Z,20.83
2018-11-01T22:38:33.431Z,22.27
2018-11-01T22:41:01.819Z,20.97
2018-11-01T22:43:30.616Z,23.40
2018-11-01T22:45:59.083Z,23.13
2018-11-01T22:48:27.445Z,21.93
2018-11-01T22:50:55.815Z,23.47
2018-11-01T22:53:24.221Z,26.33
2018-11-01T22:55:52.669Z,23.47
2018-11-01T22:58:21.067Z,24.40
2018-11-01T23:00:49.434Z,24.43
2018-11-01T23:03:17.830Z,24.80
2018-11-01T23:05:46.202Z,24.77
2018-11-01T23:08:14.586Z,24.30
2018-11-01T23:10:42.961Z,26.10
2018-11-01T23:13:11.457Z,24.40
2018-11-01T23:15:39.774Z,25.53
2018-11-01T23:18:08.243Z,25.73
2018-11-01T23:20:36.584Z,26.87
2018-11-01T23:23:04.986Z,25.40
2018-11-01T23:25:33.326Z,27.07
2018-11-01T23:28:01.700Z,26.43
2018-11-01T23:30:30.139Z,26.17
2018-11-01T23:32:58.591Z,26.17
2018-11-01T23:35:27.100Z,24.83
2018-11-01T23:38:00.758Z,25.93
2018-11-01T23:40:34.468Z,24.63
2018-11-01T23:43:08.096Z,26.80
2018-11-01T23:45:41.741Z,25.77
2018-11-01T23:48:09.333Z,25.43
2018-11-01T23:50:46.884Z,27.47
2018-11-01T23:53:27.061Z,30.87
2018-11-01T23:55:55.894Z,26.70
2018-11-01T23:58:24.322Z,27.23
